sensor_id;sensor_type;location;lat;lon;timestamp;pressure;altitude;pressure_sealevel;temperature;humidity
76594;BME280;65482;50.240;14.302;2023-06-05T00:00:04;99912.91;;;11.07;57.97
76594;BME280;65482;50.240;14.302;2023-06-05T00:02:32;99918.84;;;11.09;58.14
76594;BME280;65482;50.240;14.302;2023-06-05T00:04:58;99911.16;;;10.98;58.58
76594;BME280;65482;50.240;14.302;2023-06-05T00:07:23;99901.16;;;10.84;58.98
76594;BME280;65482;50.240;14.302;2023-06-05T00:09:49;99905.56;;;10.75;59.86
76594;BME280;65482;50.240;14.302;2023-06-05T00:12:14;99906.31;;;10.67;59.57
76594;BME280;65482;50.240;14.302;2023-06-05T00:14:42;99910.38;;;10.62;59.69
76594;BME280;65482;50.240;14.302;2023-06-05T00:17:08;99903.59;;;10.59;59.60
76594;BME280;65482;50.240;14.302;2023-06-05T00:19:34;99900.81;;;10.61;59.47
76594;BME280;65482;50.240;14.302;2023-06-05T00:22:00;99907.19;;;10.58;59.98
76594;BME280;65482;50.240;14.302;2023-06-05T00:24:25;99904.06;;;10.54;60.10
76594;BME280;65482;50.240;14.302;2023-06-05T00:26:51;99910.84;;;10.57;59.63
76594;BME280;65482;50.240;14.302;2023-06-05T00:29:17;99909.34;;;10.54;60.16
76594;BME280;65482;50.240;14.302;2023-06-05T00:31:43;99907.66;;;10.53;59.91
76594;BME280;65482;50.240;14.302;2023-06-05T00:34:09;99906.31;;;10.49;60.32
76594;BME280;65482;50.240;14.302;2023-06-05T00:36:35;99900.88;;;10.51;60.02
76594;BME280;65482;50.240;14.302;2023-06-05T00:39:02;99904.81;;;10.47;60.13
76594;BME280;65482;50.240;14.302;2023-06-05T00:41:28;99912.88;;;10.45;60.42
76594;BME280;65482;50.240;14.302;2023-06-05T00:43:54;99917.47;;;10.43;60.43
76594;BME280;65482;50.240;14.302;2023-06-05T00:46:19;99908.56;;;10.44;60.59
76594;BME280;65482;50.240;14.302;2023-06-05T00:48:45;99910.38;;;10.44;60.33
76594;BME280;65482;50.240;14.302;2023-06-05T00:51:14;99905.25;;;10.42;60.93
76594;BME280;65482;50.240;14.302;2023-06-05T00:53:41;99913.16;;;10.42;60.55
76594;BME280;65482;50.240;14.302;2023-06-05T00:56:08;99914.50;;;10.46;60.46
76594;BME280;65482;50.240;14.302;2023-06-05T00:58:33;99905.78;;;10.46;60.36
76594;BME280;65482;50.240;14.302;2023-06-05T01:01:01;99904.13;;;10.45;60.67
76594;BME280;65482;50.240;14.302;2023-06-05T01:03:30;99909.41;;;10.45;60.64
76594;BME280;65482;50.240;14.302;2023-06-05T01:06:01;99905.78;;;10.46;60.38
76594;BME280;65482;50.240;14.302;2023-06-05T01:08:35;99907.59;;;10.45;60.83
76594;BME280;65482;50.240;14.302;2023-06-05T01:11:09;99893.88;;;10.42;60.48
76594;BME280;65482;50.240;14.302;2023-06-05T01:13:40;99903.97;;;10.46;60.15
76594;BME280;65482;50.240;14.302;2023-06-05T01:16:09;99907.81;;;10.52;60.11
76594;BME280;65482;50.240;14.302;2023-06-05T01:18:37;99907.00;;;10.51;60.30
76594;BME280;65482;50.240;14.302;2023-06-05T01:21:11;99907.97;;;10.50;60.05
76594;BME280;65482;50.240;14.302;2023-06-05T01:23:41;99910.44;;;10.52;60.33
76594;BME280;65482;50.240;14.302;2023-06-05T01:26:16;99912.41;;;10.50;60.30
76594;BME280;65482;50.240;14.302;2023-06-05T01:28:44;99907.72;;;10.44;60.54
76594;BME280;65482;50.240;14.302;2023-06-05T01:31:15;99910.75;;;10.49;60.11
76594;BME280;65482;50.240;14.302;2023-06-05T01:33:45;99910.22;;;10.45;60.76
76594;BME280;65482;50.240;14.302;2023-06-05T01:36:15;99912.25;;;10.51;60.33
76594;BME280;65482;50.240;14.302;2023-06-05T01:38:43;99911.28;;;10.52;60.28
76594;BME280;65482;50.240;14.302;2023-06-05T01:41:10;99913.34;;;10.59;60.27
76594;BME280;65482;50.240;14.302;2023-06-05T01:43:36;99910.53;;;10.60;59.87
76594;BME280;65482;50.240;14.302;2023-06-05T01:46:04;99907.13;;;10.68;60.04
76594;BME280;65482;50.240;14.302;2023-06-05T01:48:33;99904.50;;;10.68;59.93
76594;BME280;65482;50.240;14.302;2023-06-05T01:50:59;99911.13;;;10.72;59.92
76594;BME280;65482;50.240;14.302;2023-06-05T01:53:26;99910.31;;;10.71;60.01
76594;BME280;65482;50.240;14.302;2023-06-05T01:55:53;99911.28;;;10.70;60.01
76594;BME280;65482;50.240;14.302;2023-06-05T01:58:23;99913.63;;;10.73;59.92
76594;BME280;65482;50.240;14.302;2023-06-05T02:00:48;99900.75;;;10.70;59.82
76594;BME280;65482;50.240;14.302;2023-06-05T02:03:15;99907.97;;;10.68;60.01
76594;BME280;65482;50.240;14.302;2023-06-05T02:05:43;99912.78;;;10.73;59.98
76594;BME280;65482;50.240;14.302;2023-06-05T02:08:09;99910.31;;;10.71;59.99
76594;BME280;65482;50.240;14.302;2023-06-05T02:10:36;99905.16;;;10.70;60.06
76594;BME280;65482;50.240;14.302;2023-06-05T02:13:03;99903.66;;;10.67;60.14
76594;BME280;65482;50.240;14.302;2023-06-05T02:15:29;99911.13;;;10.72;60.13
76594;BME280;65482;50.240;14.302;2023-06-05T02:17:57;99910.22;;;10.63;60.13
76594;BME280;65482;50.240;14.302;2023-06-05T02:20:27;99904.41;;;10.60;60.52
76594;BME280;65482;50.240;14.302;2023-06-05T02:22:53;99903.06;;;10.55;60.38
76594;BME280;65482;50.240;14.302;2023-06-05T02:25:20;99904.75;;;10.57;60.46
76594;BME280;65482;50.240;14.302;2023-06-05T02:27:46;99904.34;;;10.51;60.42
76594;BME280;65482;50.240;14.302;2023-06-05T02:30:12;99910.91;;;10.47;60.78
76594;BME280;65482;50.240;14.302;2023-06-05T02:32:38;99905.78;;;10.46;60.97
76594;BME280;65482;50.240;14.302;2023-06-05T02:35:10;99904.13;;;10.45;61.13
76594;BME280;65482;50.240;14.302;2023-06-05T02:37:36;99895.38;;;10.44;60.86
76594;BME280;65482;50.240;14.302;2023-06-05T02:40:09;99901.63;;;10.43;61.15
76594;BME280;65482;50.240;14.302;2023-06-05T02:42:36;99903.97;;;10.46;60.71
76594;BME280;65482;50.240;14.302;2023-06-05T02:45:02;99896.81;;;10.39;60.98
76594;BME280;65482;50.240;14.302;2023-06-05T02:47:30;99895.16;;;10.38;61.08
76594;BME280;65482;50.240;14.302;2023-06-05T02:49:56;99896.38;;;10.43;61.04
76594;BME280;65482;50.240;14.302;2023-06-05T02:52:22;99896.81;;;10.39;61.04
76594;BME280;65482;50.240;14.302;2023-06-05T02:54:47;99897.94;;;10.36;61.12
76594;BME280;65482;50.240;14.302;2023-06-05T02:57:13;99888.22;;;10.37;61.49
76594;BME280;65482;50.240;14.302;2023-06-05T02:59:41;99886.69;;;10.34;61.42
76594;BME280;65482;50.240;14.302;2023-06-05T03:02:07;99887.13;;;10.29;61.81
76594;BME280;65482;50.240;14.302;2023-06-05T03:04:32;99887.41;;;10.26;61.48
76594;BME280;65482;50.240;14.302;2023-06-05T03:06:58;99893.81;;;10.24;61.95
76594;BME280;65482;50.240;14.302;2023-06-05T03:09:31;99881.63;;;10.23;61.98
76594;BME280;65482;50.240;14.302;2023-06-05T03:11:58;99882.13;;;10.26;61.81
76594;BME280;65482;50.240;14.302;2023-06-05T03:14:24;99880.06;;;10.30;61.87
76594;BME280;65482;50.240;14.302;2023-06-05T03:16:50;99880.47;;;10.35;61.73
76594;BME280;65482;50.240;14.302;2023-06-05T03:19:16;99875.41;;;10.42;61.45
76594;BME280;65482;50.240;14.302;2023-06-05T03:21:41;99881.69;;;10.41;61.22
76594;BME280;65482;50.240;14.302;2023-06-05T03:24:10;99872.63;;;10.43;61.29
76594;BME280;65482;50.240;14.302;2023-06-05T03:26:41;99882.19;;;10.44;61.29
76594;BME280;65482;50.240;14.302;2023-06-05T03:29:07;99875.19;;;10.53;61.16
76594;BME280;65482;50.240;14.302;2023-06-05T03:31:33;99881.69;;;10.59;61.07
76594;BME280;65482;50.240;14.302;2023-06-05T03:33:59;99884.00;;;10.62;60.96
76594;BME280;65482;50.240;14.302;2023-06-05T03:36:26;99881.28;;;10.71;61.15
76594;BME280;65482;50.240;14.302;2023-06-05T03:38:56;99885.28;;;11.28;59.93
76594;BME280;65482;50.240;14.302;2023-06-05T03:41:22;99888.25;;;12.28;57.58
76594;BME280;65482;50.240;14.302;2023-06-05T03:43:48;99882.09;;;13.26;54.71
76594;BME280;65482;50.240;14.302;2023-06-05T03:46:16;99887.78;;;14.10;52.15
76594;BME280;65482;50.240;14.302;2023-06-05T03:48:47;99889.34;;;14.59;50.37
76594;BME280;65482;50.240;14.302;2023-06-05T03:51:34;99888.91;;;14.93;49.50
76594;BME280;65482;50.240;14.302;2023-06-05T03:53:59;99886.25;;;14.93;48.63
76594;BME280;65482;50.240;14.302;2023-06-05T03:56:27;99888.25;;;14.68;49.33
76594;BME280;65482;50.240;14.302;2023-06-05T03:59:02;99892.31;;;14.32;49.98
76594;BME280;65482;50.240;14.302;2023-06-05T04:01:35;99888.31;;;14.05;50.91
76594;BME280;65482;50.240;14.302;2023-06-05T04:04:05;99896.75;;;13.69;51.70
76594;BME280;65482;50.240;14.302;2023-06-05T04:06:31;99895.88;;;13.38;52.59
76594;BME280;65482;50.240;14.302;2023-06-05T04:09:02;99891.88;;;13.09;53.46
76594;BME280;65482;50.240;14.302;2023-06-05T04:11:34;99902.03;;;12.97;54.08
76594;BME280;65482;50.240;14.302;2023-06-05T04:14:00;99901.34;;;12.79;54.33
76594;BME280;65482;50.240;14.302;2023-06-05T04:16:25;99895.91;;;12.72;54.72
76594;BME280;65482;50.240;14.302;2023-06-05T04:18:51;99904.81;;;12.63;54.96
76594;BME280;65482;50.240;14.302;2023-06-05T04:21:16;99900.19;;;12.57;55.19
76594;BME280;65482;50.240;14.302;2023-06-05T04:23:42;99895.88;;;12.56;55.36
76594;BME280;65482;50.240;14.302;2023-06-05T04:26:07;99903.31;;;12.60;55.38
76594;BME280;65482;50.240;14.302;2023-06-05T04:28:33;99907.28;;;12.56;55.76
76594;BME280;65482;50.240;14.302;2023-06-05T04:31:00;99910.22;;;12.37;56.83
76594;BME280;65482;50.240;14.302;2023-06-05T04:33:27;99908.91;;;12.32;57.02
76594;BME280;65482;50.240;14.302;2023-06-05T04:35:52;99911.06;;;12.37;56.59
76594;BME280;65482;50.240;14.302;2023-06-05T04:38:18;99913.22;;;12.33;56.90
76594;BME280;65482;50.240;14.302;2023-06-05T04:40:47;99913.84;;;12.27;56.93
76594;BME280;65482;50.240;14.302;2023-06-05T04:43:14;99918.81;;;12.22;57.42
76594;BME280;65482;50.240;14.302;2023-06-05T04:45:40;99906.25;;;12.32;57.37
76594;BME280;65482;50.240;14.302;2023-06-05T04:48:07;99918.53;;;12.42;56.87
76594;BME280;65482;50.240;14.302;2023-06-05T04:50:33;99915.53;;;12.45;56.99
76594;BME280;65482;50.240;14.302;2023-06-05T04:52:59;99908.63;;;12.52;56.64
76594;BME280;65482;50.240;14.302;2023-06-05T04:55:24;99901.00;;;12.57;56.54
76594;BME280;65482;50.240;14.302;2023-06-05T04:57:50;99912.09;;;12.69;56.03
76594;BME280;65482;50.240;14.302;2023-06-05T05:00:17;99900.03;;;12.74;55.76
76594;BME280;65482;50.240;14.302;2023-06-05T05:02:42;99903.84;;;12.80;55.68
76594;BME280;65482;50.240;14.302;2023-06-05T05:05:09;99912.63;;;12.97;55.76
76594;BME280;65482;50.240;14.302;2023-06-05T05:07:41;99909.63;;;13.00;55.76
76594;BME280;65482;50.240;14.302;2023-06-05T05:10:08;99906.81;;;13.10;55.84
76594;BME280;65482;50.240;14.302;2023-06-05T05:12:34;99914.28;;;13.31;55.04
76594;BME280;65482;50.240;14.302;2023-06-05T05:15:00;99914.38;;;13.46;54.62
76594;BME280;65482;50.240;14.302;2023-06-05T05:17:25;99911.19;;;13.59;54.33
76594;BME280;65482;50.240;14.302;2023-06-05T05:19:51;99910.97;;;13.77;54.06
76594;BME280;65482;50.240;14.302;2023-06-05T05:22:17;99906.31;;;13.87;53.33
76594;BME280;65482;50.240;14.302;2023-06-05T05:24:42;99898.59;;;14.00;53.39
76594;BME280;65482;50.240;14.302;2023-06-05T05:27:08;99902.19;;;14.16;52.37
76594;BME280;65482;50.240;14.302;2023-06-05T05:29:36;99907.53;;;14.39;51.79
76594;BME280;65482;50.240;14.302;2023-06-05T05:32:02;99910.47;;;14.44;51.38
76594;BME280;65482;50.240;14.302;2023-06-05T05:34:28;99900.66;;;14.52;51.48
76594;BME280;65482;50.240;14.302;2023-06-05T05:36:55;99904.41;;;14.66;50.93
76594;BME280;65482;50.240;14.302;2023-06-05T05:39:20;99903.97;;;14.78;50.45
76594;BME280;65482;50.240;14.302;2023-06-05T05:41:46;99897.75;;;14.85;50.32
76594;BME280;65482;50.240;14.302;2023-06-05T05:44:12;99905.38;;;14.88;50.00
76594;BME280;65482;50.240;14.302;2023-06-05T05:46:38;99905.25;;;15.05;49.67
76594;BME280;65482;50.240;14.302;2023-06-05T05:49:04;99911.41;;;15.20;50.17
76594;BME280;65482;50.240;14.302;2023-06-05T05:51:29;99909.19;;;15.24;50.04
76594;BME280;65482;50.240;14.302;2023-06-05T05:53:59;99910.78;;;15.33;49.96
76594;BME280;65482;50.240;14.302;2023-06-05T05:56:24;99912.34;;;15.42;50.05
76594;BME280;65482;50.240;14.302;2023-06-05T05:58:50;99904.13;;;15.52;49.57
76594;BME280;65482;50.240;14.302;2023-06-05T06:01:15;99914.38;;;15.55;49.63
76594;BME280;65482;50.240;14.302;2023-06-05T06:03:41;99914.81;;;15.59;50.37
76594;BME280;65482;50.240;14.302;2023-06-05T06:06:08;99919.41;;;15.50;50.59
76594;BME280;65482;50.240;14.302;2023-06-05T06:08:34;99911.09;;;15.68;50.22
76594;BME280;65482;50.240;14.302;2023-06-05T06:11:00;99917.88;;;15.85;49.82
76594;BME280;65482;50.240;14.302;2023-06-05T06:13:26;99916.09;;;16.07;49.06
76594;BME280;65482;50.240;14.302;2023-06-05T06:15:53;99922.72;;;16.12;49.42
76594;BME280;65482;50.240;14.302;2023-06-05T06:18:18;99921.97;;;16.18;49.48
76594;BME280;65482;50.240;14.302;2023-06-05T06:20:44;99923.00;;;16.38;49.43
76594;BME280;65482;50.240;14.302;2023-06-05T06:23:10;99925.06;;;16.79;48.86
76594;BME280;65482;50.240;14.302;2023-06-05T06:25:36;99920.31;;;17.24;47.39
76594;BME280;65482;50.240;14.302;2023-06-05T06:28:02;99921.25;;;17.73;46.26
76594;BME280;65482;50.240;14.302;2023-06-05T06:30:28;99917.00;;;17.79;45.79
76594;BME280;65482;50.240;14.302;2023-06-05T06:32:56;99923.19;;;17.86;45.13
76594;BME280;65482;50.240;14.302;2023-06-05T06:35:24;99917.38;;;17.76;44.91
76594;BME280;65482;50.240;14.302;2023-06-05T06:37:53;99915.63;;;17.89;44.56
76594;BME280;65482;50.240;14.302;2023-06-05T06:40:20;99917.56;;;18.09;43.63
76594;BME280;65482;50.240;14.302;2023-06-05T06:42:46;99918.28;;;18.58;42.97
76594;BME280;65482;50.240;14.302;2023-06-05T06:45:13;99924.28;;;18.73;41.89
76594;BME280;65482;50.240;14.302;2023-06-05T06:47:46;99924.03;;;19.81;40.24
76594;BME280;65482;50.240;14.302;2023-06-05T06:50:15;99931.94;;;22.64;34.70
76594;BME280;65482;50.240;14.302;2023-06-05T06:52:41;99926.78;;;24.16;31.69
76594;BME280;65482;50.240;14.302;2023-06-05T06:55:09;99925.91;;;23.87;31.77
76594;BME280;65482;50.240;14.302;2023-06-05T06:57:36;99922.81;;;23.19;32.77
76594;BME280;65482;50.240;14.302;2023-06-05T07:00:02;99921.16;;;22.53;33.15
76594;BME280;65482;50.240;14.302;2023-06-05T07:02:33;99920.13;;;21.87;34.06
76594;BME280;65482;50.240;14.302;2023-06-05T07:04:58;99911.44;;;22.03;33.24
76594;BME280;65482;50.240;14.302;2023-06-05T07:07:24;99917.06;;;22.50;32.64
76594;BME280;65482;50.240;14.302;2023-06-05T07:09:50;99917.53;;;23.60;31.24
76594;BME280;65482;50.240;14.302;2023-06-05T07:12:17;99917.47;;;24.81;29.01
76594;BME280;65482;50.240;14.302;2023-06-05T07:14:44;99919.28;;;25.88;27.91
76594;BME280;65482;50.240;14.302;2023-06-05T07:17:10;99916.56;;;25.88;27.87
76594;BME280;65482;50.240;14.302;2023-06-05T07:19:36;99912.00;;;27.29;25.40
76594;BME280;65482;50.240;14.302;2023-06-05T07:22:05;99915.00;;;28.69;24.18
76594;BME280;65482;50.240;14.302;2023-06-05T07:24:31;99917.28;;;28.04;24.74
76594;BME280;65482;50.240;14.302;2023-06-05T07:27:01;99908.41;;;28.29;23.66
76594;BME280;65482;50.240;14.302;2023-06-05T07:29:28;99909.25;;;28.96;22.46
76594;BME280;65482;50.240;14.302;2023-06-05T07:31:55;99907.41;;;27.77;24.25
76594;BME280;65482;50.240;14.302;2023-06-05T07:34:22;99915.31;;;26.67;26.21
76594;BME280;65482;50.240;14.302;2023-06-05T07:36:49;99910.69;;;25.30;27.29
76594;BME280;65482;50.240;14.302;2023-06-05T07:39:18;99912.78;;;24.02;28.93
76594;BME280;65482;50.240;14.302;2023-06-05T07:41:46;99910.13;;;23.67;29.64
76594;BME280;65482;50.240;14.302;2023-06-05T07:44:16;99906.81;;;24.29;28.98
76594;BME280;65482;50.240;14.302;2023-06-05T07:46:45;99911.47;;;27.27;25.62
76594;BME280;65482;50.240;14.302;2023-06-05T07:49:11;99909.75;;;29.55;23.02
76594;BME280;65482;50.240;14.302;2023-06-05T07:51:40;99903.13;;;31.35;20.79
76594;BME280;65482;50.240;14.302;2023-06-05T07:54:07;99899.19;;;30.58;20.90
76594;BME280;65482;50.240;14.302;2023-06-05T07:56:36;99904.38;;;28.88;23.29
76594;BME280;65482;50.240;14.302;2023-06-05T07:59:04;99892.84;;;27.99;23.40
76594;BME280;65482;50.240;14.302;2023-06-05T08:01:36;99893.69;;;28.05;23.83
76594;BME280;65482;50.240;14.302;2023-06-05T08:04:03;99889.34;;;27.93;23.38
76594;BME280;65482;50.240;14.302;2023-06-05T08:06:33;99885.13;;;27.70;23.83
76594;BME280;65482;50.240;14.302;2023-06-05T08:09:04;99892.38;;;28.17;24.02
76594;BME280;65482;50.240;14.302;2023-06-05T08:11:29;99881.56;;;28.48;23.68
76594;BME280;65482;50.240;14.302;2023-06-05T08:13:55;99880.88;;;29.64;21.78
76594;BME280;65482;50.240;14.302;2023-06-05T08:16:21;99879.34;;;30.08;22.21
76594;BME280;65482;50.240;14.302;2023-06-05T08:18:47;99877.75;;;30.81;20.53
76594;BME280;65482;50.240;14.302;2023-06-05T08:21:13;99874.78;;;31.36;20.20
76594;BME280;65482;50.240;14.302;2023-06-05T08:23:39;99877.50;;;31.36;19.72
76594;BME280;65482;50.240;14.302;2023-06-05T08:26:05;99879.16;;;31.31;20.11
76594;BME280;65482;50.240;14.302;2023-06-05T08:28:42;99876.03;;;31.67;20.00
76594;BME280;65482;50.240;14.302;2023-06-05T08:31:08;99871.63;;;31.23;20.31
76594;BME280;65482;50.240;14.302;2023-06-05T08:33:36;99878.69;;;31.00;20.77
76594;BME280;65482;50.240;14.302;2023-06-05T08:36:04;99867.66;;;30.07;21.15
76594;BME280;65482;50.240;14.302;2023-06-05T08:38:31;99868.03;;;28.89;22.27
76594;BME280;65482;50.240;14.302;2023-06-05T08:41:06;99873.97;;;28.45;23.22
76594;BME280;65482;50.240;14.302;2023-06-05T08:43:39;99867.97;;;27.49;24.18
76594;BME280;65482;50.240;14.302;2023-06-05T08:46:10;99870.06;;;26.94;25.69
76594;BME280;65482;50.240;14.302;2023-06-05T08:49:10;99872.66;;;26.52;26.01
76594;BME280;65482;50.240;14.302;2023-06-05T08:51:39;99864.03;;;26.23;26.19
76594;BME280;65482;50.240;14.302;2023-06-05T08:54:09;99873.91;;;26.12;26.80
76594;BME280;65482;50.240;14.302;2023-06-05T08:56:41;99879.88;;;25.70;27.50
76594;BME280;65482;50.240;14.302;2023-06-05T08:59:08;99867.75;;;25.50;28.30
76594;BME280;65482;50.240;14.302;2023-06-05T09:01:33;99870.41;;;25.45;28.61
76594;BME280;65482;50.240;14.302;2023-06-05T09:03:59;99873.88;;;25.85;28.66
76594;BME280;65482;50.240;14.302;2023-06-05T09:06:25;99872.47;;;26.04;28.08
76594;BME280;65482;50.240;14.302;2023-06-05T09:08:51;99862.38;;;25.94;27.98
76594;BME280;65482;50.240;14.302;2023-06-05T09:11:26;99867.72;;;25.67;28.57
76594;BME280;65482;50.240;14.302;2023-06-05T09:13:54;99869.09;;;25.70;28.12
76594;BME280;65482;50.240;14.302;2023-06-05T09:16:33;99862.91;;;25.13;28.94
76594;BME280;65482;50.240;14.302;2023-06-05T09:18:59;99863.81;;;25.02;29.38
76594;BME280;65482;50.240;14.302;2023-06-05T09:21:26;99866.13;;;24.76;29.25
76594;BME280;65482;50.240;14.302;2023-06-05T09:24:24;99862.75;;;24.52;31.03
76594;BME280;65482;50.240;14.302;2023-06-05T09:29:22;99848.97;;;24.66;30.29
76594;BME280;65482;50.240;14.302;2023-06-05T09:31:50;99863.84;;;24.68;30.09
76594;BME280;65482;50.240;14.302;2023-06-05T09:34:23;99850.34;;;24.68;28.89
76594;BME280;65482;50.240;14.302;2023-06-05T09:36:49;99853.94;;;24.57;29.11
76594;BME280;65482;50.240;14.302;2023-06-05T09:39:16;99857.22;;;24.30;29.61
76594;BME280;65482;50.240;14.302;2023-06-05T09:41:48;99848.88;;;24.15;29.96
76594;BME280;65482;50.240;14.302;2023-06-05T09:44:15;99850.00;;;24.19;29.75
76594;BME280;65482;50.240;14.302;2023-06-05T09:46:57;99850.00;;;24.19;29.38
76594;BME280;65482;50.240;14.302;2023-06-05T09:49:30;99845.66;;;24.01;29.31
76594;BME280;65482;50.240;14.302;2023-06-05T09:51:58;99838.19;;;23.91;29.45
76594;BME280;65482;50.240;14.302;2023-06-05T09:54:28;99835.88;;;23.83;29.95
76594;BME280;65482;50.240;14.302;2023-06-05T09:57:03;99835.28;;;23.81;30.07
76594;BME280;65482;50.240;14.302;2023-06-05T09:59:30;99835.44;;;24.03;29.66
76594;BME280;65482;50.240;14.302;2023-06-05T10:02:00;99833.72;;;23.97;29.59
76594;BME280;65482;50.240;14.302;2023-06-05T10:04:28;99829.34;;;24.08;29.49
76594;BME280;65482;50.240;14.302;2023-06-05T10:07:00;99839.19;;;24.31;28.72
76594;BME280;65482;50.240;14.302;2023-06-05T10:09:29;99830.09;;;24.20;28.86
76594;BME280;65482;50.240;14.302;2023-06-05T10:11:56;99829.19;;;24.14;29.19
76594;BME280;65482;50.240;14.302;2023-06-05T10:14:22;99827.97;;;24.22;28.34
76594;BME280;65482;50.240;14.302;2023-06-05T10:16:51;99822.69;;;23.98;28.70
76594;BME280;65482;50.240;14.302;2023-06-05T10:19:19;99823.50;;;23.99;28.31
76594;BME280;65482;50.240;14.302;2023-06-05T10:21:49;99826.31;;;24.04;28.97
76594;BME280;65482;50.240;14.302;2023-06-05T10:24:20;99818.75;;;24.18;28.75
76594;BME280;65482;50.240;14.302;2023-06-05T10:34:56;99814.16;;;24.18;28.27
76594;BME280;65482;50.240;14.302;2023-06-05T10:37:56;99818.66;;;24.13;28.19
76594;BME280;65482;50.240;14.302;2023-06-05T10:40:19;99808.88;;;24.40;28.20
76594;BME280;65482;50.240;14.302;2023-06-05T10:42:46;99807.47;;;24.21;28.58
76594;BME280;65482;50.240;14.302;2023-06-05T10:45:12;99803.59;;;24.46;28.69
76594;BME280;65482;50.240;14.302;2023-06-05T10:52:41;99802.09;;;24.38;27.70
76594;BME280;65482;50.240;14.302;2023-06-05T10:55:07;99805.91;;;24.25;28.19
76594;BME280;65482;50.240;14.302;2023-06-05T11:00:37;99801.03;;;24.39;28.02
76594;BME280;65482;50.240;14.302;2023-06-05T11:03:05;99808.31;;;24.38;27.36
76594;BME280;65482;50.240;14.302;2023-06-05T11:05:33;99805.91;;;24.25;27.32
76594;BME280;65482;50.240;14.302;2023-06-05T11:08:17;99803.09;;;24.32;27.61
76594;BME280;65482;50.240;14.302;2023-06-05T11:11:05;99804.81;;;24.55;27.49
76594;BME280;65482;50.240;14.302;2023-06-05T11:13:53;99798.72;;;24.59;27.51
76594;BME280;65482;50.240;14.302;2023-06-05T11:16:26;99802.69;;;24.74;27.11
76594;BME280;65482;50.240;14.302;2023-06-05T11:18:51;99793.66;;;24.63;26.99
76594;BME280;65482;50.240;14.302;2023-06-05T11:21:18;99796.75;;;24.72;27.51
76594;BME280;65482;50.240;14.302;2023-06-05T11:24:13;99800.19;;;24.50;26.86
76594;BME280;65482;50.240;14.302;2023-06-05T11:26:40;99788.50;;;24.61;27.03
76594;BME280;65482;50.240;14.302;2023-06-05T11:29:11;99795.41;;;24.40;28.09
76594;BME280;65482;50.240;14.302;2023-06-05T11:31:37;99791.31;;;24.89;27.22
76594;BME280;65482;50.240;14.302;2023-06-05T11:34:11;99793.34;;;24.98;26.78
76594;BME280;65482;50.240;14.302;2023-06-05T11:36:45;99786.56;;;24.96;26.51
76594;BME280;65482;50.240;14.302;2023-06-05T11:39:17;99794.91;;;24.94;26.73
76594;BME280;65482;50.240;14.302;2023-06-05T11:41:50;99789.81;;;24.98;27.10
76594;BME280;65482;50.240;14.302;2023-06-05T11:44:33;99790.84;;;25.14;26.86
76594;BME280;65482;50.240;14.302;2023-06-05T11:47:25;99790.28;;;25.12;26.78
76594;BME280;65482;50.240;14.302;2023-06-05T11:50:06;99783.75;;;25.08;26.67
76594;BME280;65482;50.240;14.302;2023-06-05T11:52:36;99798.81;;;25.04;26.00
76594;BME280;65482;50.240;14.302;2023-06-05T11:55:18;99793.91;;;25.00;25.90
76594;BME280;65482;50.240;14.302;2023-06-05T11:58:23;99797.63;;;24.77;26.27
76594;BME280;65482;50.240;14.302;2023-06-05T12:01:44;99788.81;;;24.65;25.73
76594;BME280;65482;50.240;14.302;2023-06-05T12:04:21;99790.00;;;24.40;26.19
76594;BME280;65482;50.240;14.302;2023-06-05T12:07:04;99789.78;;;24.42;26.79
76594;BME280;65482;50.240;14.302;2023-06-05T12:09:59;99782.66;;;24.36;26.83
76594;BME280;65482;50.240;14.302;2023-06-05T12:13:19;99789.75;;;24.08;27.58
76594;BME280;65482;50.240;14.302;2023-06-05T12:16:03;99788.94;;;24.08;27.81
76594;BME280;65482;50.240;14.302;2023-06-05T12:19:17;99786.41;;;24.18;28.82
76594;BME280;65482;50.240;14.302;2023-06-05T12:22:05;99786.06;;;24.14;29.95
76594;BME280;65482;50.240;14.302;2023-06-05T12:24:32;99790.16;;;24.17;30.10
76594;BME280;65482;50.240;14.302;2023-06-05T12:27:01;99787.47;;;24.17;30.03
76594;BME280;65482;50.240;14.302;2023-06-05T12:29:31;99786.53;;;24.11;30.34
76594;BME280;65482;50.240;14.302;2023-06-05T12:31:59;99791.28;;;24.21;30.81
76594;BME280;65482;50.240;14.302;2023-06-05T12:34:47;99808.44;;;24.15;32.59
76594;BME280;65482;50.240;14.302;2023-06-05T12:37:26;99813.31;;;24.01;35.22
76594;BME280;65482;50.240;14.302;2023-06-05T12:39:58;99808.25;;;23.88;37.25
76594;BME280;65482;50.240;14.302;2023-06-05T12:42:27;99806.28;;;23.59;38.10
76594;BME280;65482;50.240;14.302;2023-06-05T12:44:54;99819.34;;;23.39;38.26
76594;BME280;65482;50.240;14.302;2023-06-05T12:47:20;99823.22;;;23.19;38.99
76594;BME280;65482;50.240;14.302;2023-06-05T12:49:46;99826.97;;;22.71;40.74
76594;BME280;65482;50.240;14.302;2023-06-05T12:52:12;99823.53;;;22.40;42.31
76594;BME280;65482;50.240;14.302;2023-06-05T12:54:38;99825.44;;;22.21;43.08
76594;BME280;65482;50.240;14.302;2023-06-05T12:57:07;99816.25;;;21.99;43.87
76594;BME280;65482;50.240;14.302;2023-06-05T12:59:33;99824.22;;;21.75;45.74
76594;BME280;65482;50.240;14.302;2023-06-05T13:01:58;99836.41;;;21.16;48.92
76594;BME280;65482;50.240;14.302;2023-06-05T13:04:24;99817.53;;;20.85;50.59
76594;BME280;65482;50.240;14.302;2023-06-05T13:06:50;99823.06;;;20.65;51.77
76594;BME280;65482;50.240;14.302;2023-06-05T13:09:16;99826.47;;;20.48;53.24
76594;BME280;65482;50.240;14.302;2023-06-05T13:11:42;99829.75;;;20.18;52.74
76594;BME280;65482;50.240;14.302;2023-06-05T13:14:08;99826.00;;;19.94;52.77
76594;BME280;65482;50.240;14.302;2023-06-05T13:16:34;99831.66;;;19.72;54.76
76594;BME280;65482;50.240;14.302;2023-06-05T13:18:59;99838.06;;;19.51;56.22